Time;durP1;ratioP1;P1;durP2;ratioP2;P2;SDS_P1;SDS_P2;PMS_P1;PMS_P2;Temp;Humidity;BMP_temperature;BMP_pressure;BME280_temperature;BME280_humidity;BME280_pressure;Samples;Min_cycle;Max_cycle;Signal;HPM_P1;HPM_P2
2022/01/23 00:01:14;;;;;;;10.85;7.85;;;;;;;-3.42;72.22;100056.33;1675683;84;20988;-70
2022/01/23 00:03:45;;;;;;;11.15;7.72;;;;;;;-3.41;72.19;100055.88;1689540;84;21074;-69
2022/01/23 00:06:09;;;;;;;13.78;9.45;;;;;;;-3.41;72.15;100061.05;1693424;84;22000;-70
2022/01/23 00:08:36;;;;;;;15.55;10.65;;;;;;;-3.46;72.16;100060.74;1697475;83;21058;-71
2022/01/23 00:11:03;;;;;;;14.45;9.20;;;;;;;-3.47;72.15;100061.63;1686634;84;21034;-70
2022/01/23 00:17:15;;;;;;;12.85;8.05;;;;;;;-3.46;72.15;100056.03;1698102;84;20975;-70
2022/01/23 00:18:47;;;;;;;75.10;39.80;;;;;;;-3.46;72.04;100075.39;1698257;84;21908;-70
2022/01/23 00:21:14;;;;;;;55.28;30.97;;;;;;;-3.47;72.02;100077.57;1693783;84;20976;-70
2022/01/23 00:31:39;;;;;;;16.02;9.70;;;;;;;-3.55;72.00;100068.73;1685305;84;21947;-70
2022/01/23 00:34:06;;;;;;;14.87;9.78;;;;;;;-3.57;72.01;100074.80;1678149;84;21024;-69
2022/01/23 00:36:33;;;;;;;11.60;7.58;;;;;;;-3.61;72.04;100077.92;1696326;84;20959;-71
2022/01/23 00:38:59;;;;;;;10.05;6.83;;;;;;;-3.62;72.06;100074.09;1685414;84;20991;-70
2022/01/23 00:41:26;;;;;;;10.85;6.67;;;;;;;-3.65;72.09;100072.45;1681058;84;21031;-69
2022/01/23 00:43:54;;;;;;;11.30;6.90;;;;;;;-3.64;72.12;100068.98;1679773;84;23024;-69
2022/01/23 00:46:24;;;;;;;10.85;7.08;;;;;;;-3.63;72.14;100071.11;1688960;83;21012;-70
2022/01/23 00:51:28;;;;;;;18.17;10.18;;;;;;;-3.64;72.14;100071.55;1683822;84;21087;-71
2022/01/23 00:53:58;;;;;;;14.70;11.00;;;;;;;-3.62;72.15;100076.67;1699775;84;21075;-70
2022/01/23 00:56:24;;;;;;;15.98;9.85;;;;;;;-3.64;72.17;100068.98;1689734;84;22455;-72
2022/01/23 00:58:50;;;;;;;21.48;14.98;;;;;;;-3.63;72.14;100069.82;1690790;84;20952;-71
2022/01/23 01:01:17;;;;;;;18.45;13.25;;;;;;;-3.63;72.14;100069.38;1691104;83;21067;-70
2022/01/23 01:03:44;;;;;;;14.70;10.58;;;;;;;-3.66;72.15;100065.59;1666720;84;20979;-70
2022/01/23 01:06:10;;;;;;;13.20;9.38;;;;;;;-3.66;72.16;100065.59;1677938;84;20968;-69
2022/01/23 01:08:39;;;;;;;12.78;8.00;;;;;;;-3.65;72.21;100063.41;1684030;84;22498;-70
2022/01/23 01:16:54;;;;;;;10.63;7.30;;;;;;;-3.64;72.16;100065.55;1691111;83;21020;-69
2022/01/23 01:35:27;;;;;;;8.80;6.55;;;;;;;-3.61;72.09;100084.81;1694184;84;21945;-68
2022/01/23 01:37:41;;;;;;;12.40;7.30;;;;;;;-3.61;72.08;100089.53;1691320;83;20892;-68
2022/01/23 01:40:10;;;;;;;12.18;7.15;;;;;;;-3.60;72.10;100092.95;1696224;84;21052;-67
2022/01/23 01:42:39;;;;;;;11.00;7.62;;;;;;;-3.61;72.13;100092.12;1694916;84;21004;-68
2022/01/23 01:45:07;;;;;;;11.80;7.03;;;;;;;-3.61;72.16;100089.98;1703027;84;21082;-68
2022/01/23 01:47:35;;;;;;;9.28;6.28;;;;;;;-3.60;72.14;100093.80;1672961;83;21861;-67
2022/01/23 01:50:05;;;;;;;9.03;5.45;;;;;;;-3.57;72.17;100100.61;1667565;84;20979;-67
2022/01/23 01:52:34;;;;;;;9.75;6.97;;;;;;;-3.59;72.13;100101.10;1692932;84;21035;-68
2022/01/23 01:55:04;;;;;;;9.60;7.10;;;;;;;-3.60;72.15;100109.30;1685127;83;21079;-68
2022/01/23 01:57:39;;;;;;;10.35;7.10;;;;;;;-3.62;72.22;100108.49;1696908;84;20988;-69
2022/01/23 02:00:37;;;;;;;11.22;7.72;;;;;;;-3.60;72.27;100111.87;1691583;83;22544;-69
2022/01/23 02:10:50;;;;;;;10.28;6.87;;;;;;;-3.54;72.29;100116.89;1696811;84;21539;-70
2022/01/23 02:13:18;;;;;;;10.10;7.20;;;;;;;-3.54;72.25;100117.34;1683914;84;21850;-69
2022/01/23 02:51:54;;;;;;;10.20;7.47;;;;;;;-3.56;72.49;100152.23;1690275;84;21019;-68
2022/01/23 02:56:46;;;;;;;12.35;8.13;;;;;;;-3.57;72.54;100156.11;1697103;84;20996;-68
2022/01/23 02:59:20;;;;;;;11.75;8.40;;;;;;;-3.56;72.56;100161.70;1697183;84;20993;-69
2022/01/23 03:02:00;;;;;;;10.20;7.72;;;;;;;-3.57;72.61;100167.31;1695577;84;20977;-68
2022/01/23 03:04:27;;;;;;;9.88;7.37;;;;;;;-3.55;72.56;100175.86;1669492;86;21514;-69
2022/01/23 03:14:49;;;;;;;12.63;8.45;;;;;;;-3.54;72.61;100168.52;1662320;84;21051;-68
2022/01/23 03:30:49;;;;;;;11.75;8.13;;;;;;;-3.53;72.68;100187.44;1713364;83;21008;-69
2022/01/23 03:33:07;;;;;;;13.18;8.45;;;;;;;-3.54;72.67;100193.49;1672070;84;21885;-68
2022/01/23 03:35:33;;;;;;;12.23;8.03;;;;;;;-3.54;72.66;100191.75;1682844;83;21033;-68
2022/01/23 03:38:00;;;;;;;11.43;8.00;;;;;;;-3.57;72.60;100194.84;1679505;84;21077;-68
2022/01/23 03:40:26;;;;;;;11.08;7.83;;;;;;;-3.60;72.54;100198.80;1683855;84;21099;-68
2022/01/23 03:43:07;;;;;;;11.75;8.65;;;;;;;-3.66;72.54;100200.25;1689540;84;21066;-68
2022/01/23 03:50:46;;;;;;;11.33;7.97;;;;;;;-3.69;72.72;100214.05;1687581;83;21087;-68
2022/01/23 03:53:15;;;;;;;13.35;8.65;;;;;;;-3.70;72.73;100214.94;1683485;84;21005;-69
2022/01/23 03:55:43;;;;;;;13.88;8.88;;;;;;;-3.70;72.71;100223.13;1684732;84;20988;-68
2022/01/23 03:58:09;;;;;;;14.85;9.08;;;;;;;-3.69;72.74;100222.24;1678311;84;22539;-68
2022/01/23 04:00:36;;;;;;;15.38;8.93;;;;;;;-3.69;72.76;100230.83;1683356;84;21100;-68
2022/01/23 04:03:02;;;;;;;12.70;8.95;;;;;;;-3.67;72.77;100239.38;1685299;84;21008;-68
2022/01/23 04:05:30;;;;;;;14.40;9.48;;;;;;;-3.66;72.80;100248.00;1691642;84;20976;-68
2022/01/23 04:07:57;;;;;;;13.43;8.70;;;;;;;-3.66;72.82;100244.98;1688551;83;21069;-69
2022/01/23 04:10:24;;;;;;;13.10;8.93;;;;;;;-3.65;72.92;100247.96;1691229;84;21807;-69
2022/01/23 04:13:08;;;;;;;11.93;8.73;;;;;;;-3.62;73.00;100245.30;1685923;84;21126;-69
2022/01/23 05:01:07;;;;;;;15.98;9.90;;;;;;;-3.54;73.21;100276.95;1694524;83;21126;-69
2022/01/23 05:06:42;;;;;;;14.25;9.75;;;;;;;-3.55;73.19;100280.86;1692305;84;21107;-69
2022/01/23 05:09:10;;;;;;;14.65;10.05;;;;;;;-3.58;73.17;100275.75;1687081;84;23533;-68
2022/01/23 05:11:50;;;;;;;13.13;9.53;;;;;;;-3.61;73.14;100278.41;1684118;84;21016;-69
2022/01/23 05:14:17;;;;;;;14.50;10.13;;;;;;;-3.67;73.05;100281.97;1686166;84;21119;-69
2022/01/23 05:16:44;;;;;;;15.30;10.30;;;;;;;-3.71;73.04;100285.95;1663081;84;21787;-69
2022/01/23 05:19:11;;;;;;;14.38;10.43;;;;;;;-3.75;72.97;100295.52;1684810;84;20937;-69
2022/01/23 05:24:19;;;;;;;14.83;9.60;;;;;;;-3.83;72.82;100306.00;1689196;83;21479;-70
2022/01/23 05:26:46;;;;;;;16.97;12.43;;;;;;;-3.87;72.73;100311.23;1684370;83;21423;-68
2022/01/23 05:29:13;;;;;;;17.85;12.95;;;;;;;-3.94;72.65;100316.99;1683443;85;21860;-68
2022/01/23 05:31:40;;;;;;;18.85;13.40;;;;;;;-3.97;72.64;100317.48;1684641;85;21048;-68
2022/01/23 05:34:08;;;;;;;18.62;13.85;;;;;;;-4.01;72.61;100321.87;1687084;83;21079;-68
2022/01/23 05:36:36;;;;;;;16.85;12.73;;;;;;;-4.04;72.65;100324.08;1670598;84;21518;-68
2022/01/23 05:39:02;;;;;;;15.90;12.63;;;;;;;-4.05;72.67;100330.12;1686800;83;20984;-68
2022/01/23 05:41:31;;;;;;;17.00;12.53;;;;;;;-4.08;72.68;100334.47;1708536;83;21844;-68
2022/01/23 05:43:57;;;;;;;18.85;13.50;;;;;;;-4.10;72.68;100334.95;1669315;83;21032;-69
2022/01/23 05:46:24;;;;;;;22.90;16.67;;;;;;;-4.11;72.74;100339.70;1688057;84;21016;-69
2022/01/23 05:48:58;;;;;;;19.55;13.70;;;;;;;-4.10;72.82;100338.82;1664517;84;21064;-69
2022/01/23 05:51:34;;;;;;;17.17;13.55;;;;;;;-4.10;72.89;100346.11;1687963;84;20961;-69
2022/01/23 05:54:03;;;;;;;31.68;20.90;;;;;;;-4.08;72.94;100352.53;1651771;83;21873;-68
2022/01/23 05:56:37;;;;;;;27.55;18.73;;;;;;;-4.08;72.95;100357.24;1691021;84;21032;-69
2022/01/23 05:59:11;;;;;;;26.05;18.23;;;;;;;-4.05;72.99;100366.67;1652891;86;20985;-68
2022/01/23 06:01:41;;;;;;;19.10;14.28;;;;;;;-4.02;73.03;100372.20;1679467;83;20968;-69
2022/01/23 06:04:09;;;;;;;20.35;15.90;;;;;;;-4.00;73.10;100370.00;1695072;84;21068;-68
2022/01/23 06:06:41;;;;;;;21.05;16.50;;;;;;;-3.99;73.14;100369.55;1691341;83;21874;-69
2022/01/23 06:09:08;;;;;;;23.92;16.27;;;;;;;-3.97;73.14;100384.55;1694986;84;21071;-68
2022/01/23 06:11:35;;;;;;;20.48;14.83;;;;;;;-3.96;73.15;100383.23;1683836;83;21433;-68
2022/01/23 06:14:02;;;;;;;22.52;15.65;;;;;;;-3.93;73.17;100381.05;1682860;84;20995;-68
2022/01/23 06:16:31;;;;;;;20.40;14.83;;;;;;;-3.92;73.26;100381.02;1686623;84;21001;-69
2022/01/23 06:19:16;;;;;;;18.62;13.58;;;;;;;-3.90;73.31;100383.56;1668207;85;21851;-69
2022/01/23 06:22:01;;;;;;;18.45;12.88;;;;;;;-3.89;73.33;100377.52;1684747;85;20956;-69
2022/01/23 06:24:47;;;;;;;17.95;13.00;;;;;;;-3.91;73.34;100378.84;1630341;87;21004;-69
2022/01/23 06:27:31;;;;;;;19.60;13.78;;;;;;;-3.92;73.30;100384.89;1670660;84;21038;-69
2022/01/23 06:29:58;;;;;;;17.77;12.78;;;;;;;-3.93;73.20;100386.22;1693429;84;21039;-68
2022/01/23 06:32:24;;;;;;;21.20;14.73;;;;;;;-3.95;73.12;100391.84;1672483;85;21790;-69
2022/01/23 06:34:51;;;;;;;16.23;11.50;;;;;;;-3.97;73.06;100400.88;1686297;85;20956;-69
2022/01/23 06:37:17;;;;;;;19.25;13.48;;;;;;;-3.98;73.02;100406.08;1685608;85;20992;-69
2022/01/23 06:39:44;;;;;;;22.95;16.95;;;;;;;-3.98;73.03;100409.95;1694173;84;20981;-70
2022/01/23 06:42:12;;;;;;;23.80;18.65;;;;;;;-3.98;73.08;100409.50;1702396;84;20956;-69
2022/01/23 06:44:41;;;;;;;23.22;17.40;;;;;;;-3.96;73.17;100417.21;1698647;82;21868;-68
2022/01/23 06:47:09;;;;;;;21.52;16.77;;;;;;;-3.93;73.14;100419.75;1671172;85;21054;-68
2022/01/23 06:49:36;;;;;;;20.12;15.95;;;;;;;-3.94;73.09;100425.36;1684175;85;21502;-71
2022/01/23 06:52:04;;;;;;;19.27;15.15;;;;;;;-3.95;73.07;100424.09;1695200;84;21016;-69
2022/01/23 06:54:31;;;;;;;18.35;13.00;;;;;;;-3.95;73.01;100433.13;1673820;84;21065;-70
2022/01/23 06:56:59;;;;;;;16.02;11.90;;;;;;;-3.93;72.97;100435.23;1674560;85;21032;-71
2022/01/23 06:59:27;;;;;;;17.62;12.70;;;;;;;-3.93;72.93;100440.39;1676318;84;21474;-71
2022/01/23 07:01:55;;;;;;;15.15;11.88;;;;;;;-3.92;72.94;100439.52;1698319;84;20967;-73
2022/01/23 07:04:24;;;;;;;16.80;11.33;;;;;;;-3.92;72.94;100448.54;1683832;84;21024;-73
2022/01/23 07:06:53;;;;;;;18.73;13.22;;;;;;;-3.90;72.99;100448.91;1651081;85;21007;-70
2022/01/23 07:09:24;;;;;;;17.25;12.07;;;;;;;-3.88;73.00;100447.59;1698200;83;21864;-71
2022/01/23 07:12:10;;;;;;;15.83;11.03;;;;;;;-3.84;73.04;100453.13;1701237;84;21027;-67
2022/01/23 07:14:57;;;;;;;16.65;11.70;;;;;;;-3.81;73.03;100453.90;1690574;83;21040;-68
2022/01/23 07:17:31;;;;;;;17.30;11.45;;;;;;;-3.81;72.98;100456.92;1676703;84;21112;-69
2022/01/23 07:20:04;;;;;;;15.48;11.38;;;;;;;-3.79;73.01;100455.16;1654685;86;20977;-69
2022/01/23 07:22:35;;;;;;;13.83;10.58;;;;;;;-3.76;73.02;100451.25;1669180;86;21858;-68
2022/01/23 07:25:05;;;;;;;11.70;8.68;;;;;;;-3.75;72.88;100458.11;1674973;84;20963;-69
2022/01/23 07:27:48;;;;;;;11.43;8.18;;;;;;;-3.71;72.90;100462.31;1650574;85;21530;-68
2022/01/23 07:30:24;;;;;;;12.25;8.73;;;;;;;-3.70;72.87;100469.17;1692582;84;21014;-69
2022/01/23 07:32:40;;;;;;;13.43;10.08;;;;;;;-3.68;72.75;100474.30;1705609;84;21003;-68
2022/01/23 07:35:08;;;;;;;13.05;9.83;;;;;;;-3.68;72.67;100471.27;1706852;84;21883;-69
2022/01/23 07:37:35;;;;;;;14.53;10.23;;;;;;;-3.65;72.73;100471.23;1704822;83;20975;-68
2022/01/23 07:40:08;;;;;;;15.93;10.35;;;;;;;-3.58;72.72;100480.54;1663250;84;21095;-68
2022/01/23 07:42:36;;;;;;;11.90;9.10;;;;;;;-3.49;72.70;100484.67;1706464;83;21465;-68
2022/01/23 07:45:04;;;;;;;15.00;10.05;;;;;;;-3.44;72.42;100484.16;1707800;84;20940;-67
2022/01/23 07:47:49;;;;;;;13.53;9.15;;;;;;;-3.43;72.30;100482.42;1707893;82;21862;-69
2022/01/23 07:50:17;;;;;;;15.00;10.60;;;;;;;-3.39;72.13;100486.62;1688809;84;21010;-69
2022/01/23 07:53:04;;;;;;;14.40;10.98;;;;;;;-3.44;71.88;100489.76;1680241;84;20902;-68
2022/01/23 07:55:33;;;;;;;13.13;10.65;;;;;;;-3.49;71.79;100494.56;1712000;82;20960;-68
2022/01/23 07:58:20;;;;;;;15.15;10.50;;;;;;;-3.46;71.77;100502.27;1710161;83;21012;-67
2022/01/23 08:01:06;;;;;;;18.35;11.70;;;;;;;-3.42;71.66;100502.19;1676205;84;21855;-69
2022/01/23 08:03:34;;;;;;;15.70;11.45;;;;;;;-3.43;71.45;100505.66;1677344;84;21416;-68
2022/01/23 08:06:04;;;;;;;14.85;10.90;;;;;;;-3.41;71.48;100504.73;1698708;84;20991;-68
2022/01/23 08:08:32;;;;;;;15.10;10.53;;;;;;;-3.41;71.23;100510.34;1676399;83;20983;-69
2022/01/23 08:11:01;;;;;;;17.90;9.73;;;;;;;-3.39;71.29;100507.28;1712308;82;20940;-69
2022/01/23 08:13:29;;;;;;;11.83;8.80;;;;;;;-3.37;71.10;100510.71;1722696;82;20996;-68
2022/01/23 08:15:55;;;;;;;12.18;8.90;;;;;;;-3.36;71.01;100513.26;1722747;83;20936;-69
2022/01/23 08:18:21;;;;;;;13.08;9.33;;;;;;;-3.39;70.85;100526.20;1723052;83;21013;-68
2022/01/23 08:20:48;;;;;;;11.57;8.35;;;;;;;-3.37;70.92;100528.79;1722813;83;21451;-68
2022/01/23 08:23:14;;;;;;;13.38;9.40;;;;;;;-3.25;71.07;100533.70;1722672;83;20963;-68
2022/01/23 08:25:41;;;;;;;11.18;8.13;;;;;;;-3.14;71.07;100531.73;1715381;83;21789;-68
2022/01/23 08:28:07;;;;;;;11.10;9.00;;;;;;;-3.06;70.80;100537.60;1699330;84;21039;-69
2022/01/23 08:30:34;;;;;;;13.90;9.43;;;;;;;-3.09;70.57;100541.52;1660478;86;21489;-68
2022/01/23 08:33:00;;;;;;;14.93;9.43;;;;;;;-3.10;70.53;100546.28;1682236;85;21027;-68
2022/01/23 08:35:28;;;;;;;13.13;8.98;;;;;;;-3.08;70.47;100546.28;1682388;85;21091;-69
2022/01/23 08:37:54;;;;;;;12.90;9.23;;;;;;;-3.07;70.41;100548.83;1682258;85;21854;-68
2022/01/23 08:40:47;;;;;;;11.78;8.60;;;;;;;-3.08;70.12;100547.56;1682250;85;20980;-68
2022/01/23 08:42:52;;;;;;;11.68;8.08;;;;;;;-3.08;70.15;100544.98;1685136;84;21056;-68
2022/01/23 08:45:19;;;;;;;11.78;8.55;;;;;;;-3.08;69.99;100544.98;1696988;84;21020;-67
2022/01/23 08:47:47;;;;;;;12.93;9.10;;;;;;;-3.16;69.77;100554.18;1699856;84;21058;-68
2022/01/23 08:50:14;;;;;;;12.55;8.68;;;;;;;-3.26;69.71;100558.68;1664474;84;22647;-68
2022/01/23 08:52:41;;;;;;;14.73;9.58;;;;;;;-3.36;69.76;100564.06;1699717;84;20944;-68
2022/01/23 08:55:08;;;;;;;14.95;9.03;;;;;;;-3.38;70.00;100566.64;1680492;83;21031;-67
2022/01/23 08:57:35;;;;;;;12.10;8.93;;;;;;;-3.30;70.22;100567.35;1704125;82;21352;-68
2022/01/23 09:00:01;;;;;;;14.80;9.63;;;;;;;-3.18;70.31;100576.17;1688531;83;20979;-67
2022/01/23 09:02:29;;;;;;;11.05;8.15;;;;;;;-3.06;70.29;100578.95;1691001;84;21769;-68
2022/01/23 09:04:56;;;;;;;11.63;7.97;;;;;;;-2.97;70.25;100576.17;1688813;85;20959;-68
2022/01/23 09:07:22;;;;;;;12.07;8.53;;;;;;;-2.86;70.20;100581.11;1683960;84;20967;-68
2022/01/23 09:09:49;;;;;;;10.75;8.00;;;;;;;-2.81;69.77;100576.68;1682535;85;20990;-68
2022/01/23 09:14:42;;;;;;;9.85;7.08;;;;;;;-2.64;69.53;100578.91;1700235;84;21797;-68
2022/01/23 09:17:09;;;;;;;9.35;6.83;;;;;;;-2.61;69.21;100582.30;1675346;84;21007;-68
2022/01/23 09:19:36;;;;;;;10.60;7.00;;;;;;;-2.60;68.73;100583.14;1664440;85;21514;-67
2022/01/23 09:22:04;;;;;;;11.55;8.15;;;;;;;-2.65;68.46;100581.94;1679713;83;21003;-68
2022/01/23 09:24:32;;;;;;;11.03;8.30;;;;;;;-2.69;68.25;100585.93;1682509;85;36173;-68
2022/01/23 09:27:04;;;;;;;13.32;10.48;;;;;;;-2.69;68.26;100591.95;1687256;84;21801;-68
2022/01/23 09:29:41;;;;;;;12.78;9.63;;;;;;;-2.64;68.16;100590.09;1700602;84;20986;-68
2022/01/23 09:32:09;;;;;;;10.38;7.22;;;;;;;-2.53;68.40;100597.61;1699165;84;20946;-67
2022/01/23 09:34:36;;;;;;;11.40;7.42;;;;;;;-2.38;68.25;100593.84;1676298;84;21085;-68
2022/01/23 09:37:06;;;;;;;9.88;7.05;;;;;;;-2.31;67.87;100600.15;1700598;84;21012;-68
2022/01/23 09:39:34;;;;;;;11.70;7.70;;;;;;;-2.24;67.86;100599.54;1707642;82;21825;-68
2022/01/23 09:42:23;;;;;;;10.63;7.72;;;;;;;-2.13;67.81;100600.58;1677913;85;21054;-68
2022/01/23 09:45:04;;;;;;;10.85;7.35;;;;;;;-2.09;67.45;100606.11;1722587;83;21507;-68
2022/01/23 09:47:31;;;;;;;11.63;8.08;;;;;;;-1.95;67.74;100612.23;1707531;84;21030;-68
2022/01/23 09:50:00;;;;;;;9.63;7.28;;;;;;;-1.73;67.80;100609.54;1678033;85;21040;-69
2022/01/23 09:52:33;;;;;;;9.95;7.62;;;;;;;-1.53;67.61;100618.09;1708014;84;21846;-68
2022/01/23 09:55:06;;;;;;;8.95;7.30;;;;;;;-1.33;67.48;100614.53;1707065;84;21024;-69
2022/01/23 09:57:31;;;;;;;11.05;8.25;;;;;;;-1.17;66.88;100623.57;1707050;83;21043;-68
2022/01/23 09:59:58;;;;;;;13.18;10.00;;;;;;;-1.17;66.20;100621.42;1707769;82;21096;-68
2022/01/23 10:02:25;;;;;;;10.93;8.38;;;;;;;-1.10;66.37;100621.67;1708103;84;20976;-68
2022/01/23 10:04:53;;;;;;;10.40;7.53;;;;;;;-0.97;66.50;100626.91;1705428;82;22599;-68
2022/01/23 10:07:21;;;;;;;9.78;7.10;;;;;;;-0.83;65.81;100625.69;1710807;82;21019;-68
2022/01/23 10:09:54;;;;;;;10.32;7.85;;;;;;;-0.84;64.75;100627.88;1707990;84;21007;-68
2022/01/23 10:12:19;;;;;;;11.45;7.97;;;;;;;-0.98;64.34;100628.25;1707105;84;21019;-68
2022/01/23 10:14:45;;;;;;;10.70;7.55;;;;;;;-0.96;64.96;100639.45;1708155;84;20964;-67
2022/01/23 10:17:11;;;;;;;10.28;7.37;;;;;;;-0.76;65.06;100637.59;1708070;82;22557;-68
2022/01/23 10:19:39;;;;;;;9.15;7.20;;;;;;;-0.50;64.83;100635.52;1705832;84;21009;-68
2022/01/23 10:22:07;;;;;;;10.63;7.58;;;;;;;-0.33;64.72;100644.95;1705931;84;21509;-69
2022/01/23 10:24:34;;;;;;;8.83;6.70;;;;;;;-0.02;64.80;100643.55;1704934;83;20967;-68
2022/01/23 10:27:01;;;;;;;10.15;6.78;;;;;;;0.26;63.54;100643.52;1705372;84;21061;-68
2022/01/23 10:29:32;;;;;;;8.15;6.30;;;;;;;0.38;63.59;100639.66;1670089;84;21835;-68
2022/01/23 10:32:14;;;;;;;8.40;6.12;;;;;;;0.53;62.43;100637.41;1699954;84;21055;-68
2022/01/23 10:34:45;;;;;;;8.63;6.47;;;;;;;0.52;62.30;100634.86;1692290;84;21012;-68
2022/01/23 10:37:14;;;;;;;9.13;6.70;;;;;;;0.61;61.54;100641.50;1699755;84;21693;-68
2022/01/23 10:39:46;;;;;;;9.90;7.30;;;;;;;0.54;61.40;100644.30;1690394;83;20951;-68
2022/01/23 10:51:20;;;;;;;13.75;7.80;;;;;;;0.20;61.10;100656.27;1699894;84;20968;-68
2022/01/23 10:54:11;;;;;;;8.25;6.37;;;;;;;0.14;61.13;100662.95;1692017;84;21478;-68
2022/01/23 10:57:00;;;;;;;9.23;6.78;;;;;;;0.07;61.13;100665.33;1692363;84;22525;-69
2022/01/23 10:59:48;;;;;;;10.15;7.90;;;;;;;0.01;61.34;100670.73;1690950;84;21047;-67
2022/01/23 11:02:21;;;;;;;8.50;6.78;;;;;;;-0.07;61.60;100678.75;1699409;83;20967;-68
2022/01/23 11:05:04;;;;;;;9.68;6.97;;;;;;;-0.05;61.57;100686.49;1698947;83;21055;-68
2022/01/23 11:07:32;;;;;;;10.28;7.30;;;;;;;-0.09;61.83;100690.94;1692131;83;21548;-69
2022/01/23 11:10:05;;;;;;;12.15;8.90;;;;;;;-0.08;61.82;100696.98;1708690;83;22486;-69
2022/01/23 11:18:14;;;;;;;12.85;9.25;;;;;;;-0.43;62.01;100720.08;1682481;83;21554;-68
2022/01/23 11:20:48;;;;;;;10.78;8.40;;;;;;;-0.47;62.22;100725.81;1677449;85;20995;-68
2022/01/23 11:23:23;;;;;;;;;;;;;;;-0.46;62.46;100724.06;1680366;85;21811;-68
2022/01/23 11:25:58;;;;;;;13.13;8.90;;;;;;;-0.47;62.41;100729.70;1719541;83;20435;-67
2022/01/23 11:28:45;;;;;;;11.45;8.90;;;;;;;-0.56;62.01;100731.26;1721031;82;20953;-68
2022/01/23 11:31:17;;;;;;;10.58;8.58;;;;;;;-0.73;62.19;100739.50;1722127;83;20973;-67
2022/01/23 11:33:44;;;;;;;12.33;8.50;;;;;;;-0.88;62.34;100738.15;1707266;82;20967;-68
2022/01/23 11:36:12;;;;;;;12.35;9.78;;;;;;;-0.95;62.78;100739.67;1705135;83;21836;-68
2022/01/23 11:38:40;;;;;;;14.45;10.55;;;;;;;-1.01;62.82;100745.01;1697168;84;21064;-68
2022/01/23 11:55:34;;;;;;;8.70;6.83;;;;;;;-1.16;63.71;100776.05;1697363;84;20979;-67
2022/01/23 11:58:02;;;;;;;10.20;7.58;;;;;;;-1.15;63.68;100775.19;1697462;84;20988;-68
2022/01/23 12:00:35;;;;;;;8.83;7.37;;;;;;;-1.19;63.76;100787.34;1704977;82;21437;-67
2022/01/23 12:03:17;;;;;;;10.55;7.37;;;;;;;-1.24;63.85;100785.77;1695920;84;21827;-67
2022/01/23 12:05:45;;;;;;;11.08;7.20;;;;;;;-1.23;63.99;100789.63;1693660;84;22251;-68
2022/01/23 12:08:33;;;;;;;9.30;6.45;;;;;;;-1.19;64.10;100793.83;1677022;85;20976;-67
2022/01/23 12:11:35;;;;;;;9.73;6.92;;;;;;;-1.12;64.10;100798.88;1669099;86;21029;-68
2022/01/23 12:16:27;;;;;;;7.40;5.28;;;;;;;-1.23;63.94;100808.20;1705161;83;21950;-68
2022/01/23 12:19:04;;;;;;;10.53;8.03;;;;;;;-1.31;64.02;100819.19;1699201;83;21441;-67
2022/01/23 12:21:31;;;;;;;9.08;6.83;;;;;;;-1.39;64.11;100821.95;1680454;83;21131;-67
2022/01/23 12:24:01;;;;;;;11.15;8.18;;;;;;;-1.38;64.42;100825.39;1685918;83;21417;-67
2022/01/23 12:26:28;;;;;;;14.40;8.60;;;;;;;-1.45;64.35;100831.16;1701292;83;21042;-67
2022/01/23 12:28:54;;;;;;;11.83;8.68;;;;;;;-1.50;64.51;100839.05;1695433;84;21758;-68
2022/01/23 12:31:24;;;;;;;13.13;8.95;;;;;;;-1.48;64.67;100835.97;1695659;84;22256;-67
2022/01/23 12:33:56;;;;;;;12.07;9.33;;;;;;;-1.44;64.64;100841.95;1696072;84;21539;-67
2022/01/23 12:36:26;;;;;;;14.70;9.55;;;;;;;-1.52;64.55;100846.45;1697264;84;20988;-68
2022/01/23 12:39:13;;;;;;;13.58;9.45;;;;;;;-1.56;64.74;100853.41;1705343;84;20979;-66
2022/01/23 12:41:42;;;;;;;13.53;9.85;;;;;;;-1.55;64.86;100857.71;1696199;84;21853;-68
2022/01/23 12:44:27;;;;;;;12.03;9.60;;;;;;;-1.58;64.81;100847.42;1697037;84;21039;-67
2022/01/23 12:46:58;;;;;;;14.23;8.98;;;;;;;-1.65;64.87;100855.36;1696687;83;20965;-68
2022/01/23 12:49:38;;;;;;;14.95;11.43;;;;;;;-1.79;64.96;100856.52;1695820;84;21012;-68
2022/01/23 12:52:13;;;;;;;18.70;12.73;;;;;;;-1.87;65.16;100863.58;1695902;84;21020;-67
2022/01/23 12:54:56;;;;;;;16.15;12.93;;;;;;;-1.90;65.39;100864.95;1693408;84;21928;-68
2022/01/23 12:57:35;;;;;;;19.50;12.97;;;;;;;-1.86;65.56;100856.66;1676264;84;21011;-67
2022/01/23 13:00:02;;;;;;;15.68;11.55;;;;;;;-1.88;65.58;100858.00;1697314;83;21551;-67
2022/01/23 13:02:37;;;;;;;15.55;11.65;;;;;;;-2.06;65.54;100860.52;1697229;83;21011;-68
2022/01/23 13:05:00;;;;;;;16.32;12.45;;;;;;;-2.15;65.88;100863.72;1696907;84;20966;-67
2022/01/23 13:10:37;;;;;;;17.15;12.93;;;;;;;-2.20;66.23;100865.12;1697400;84;21435;-67
2022/01/23 13:13:07;;;;;;;17.15;12.90;;;;;;;-2.29;66.28;100867.03;1705258;83;21015;-67
2022/01/23 13:31:58;;;;;;;17.98;12.18;;;;;;;-2.51;66.84;100889.41;1707995;82;21102;-68
2022/01/23 13:34:27;;;;;;;16.57;12.25;;;;;;;-2.57;66.94;100894.68;1709091;82;21874;-69
2022/01/23 13:37:12;;;;;;;16.32;11.73;;;;;;;-2.61;67.09;100903.35;1708126;82;20968;-67
2022/01/23 13:39:48;;;;;;;17.95;11.95;;;;;;;-2.66;67.19;100911.20;1708023;84;21015;-68
2022/01/23 13:51:55;;;;;;;16.50;12.15;;;;;;;-2.85;68.00;100913.67;1708330;82;21093;-68
2022/01/23 14:00:12;;;;;;;19.37;12.82;;;;;;;-2.71;68.36;100927.21;1707041;84;21053;-68
2022/01/23 14:02:39;;;;;;;19.67;12.68;;;;;;;-2.65;68.45;100932.73;1710422;82;21871;-67
2022/01/23 14:05:30;;;;;;;20.88;13.55;;;;;;;-2.64;68.40;100932.70;1700127;82;21023;-67
2022/01/23 14:08:01;;;;;;;;;;;;;;;-2.65;68.42;100940.05;1709216;82;21428;-67
2022/01/23 14:10:35;;;;;;;17.82;12.93;;;;;;;-2.62;68.43;100939.99;1705837;84;20466;-68
2022/01/23 14:13:19;;;;;;;18.15;12.15;;;;;;;-2.63;68.50;100945.20;1705915;84;21025;-67
2022/01/23 14:15:50;;;;;;;18.65;13.38;;;;;;;-2.71;68.56;100953.06;1675220;85;21832;-66
2022/01/23 14:18:26;;;;;;;20.52;15.03;;;;;;;-2.79;68.69;100962.70;1705139;82;21006;-67
2022/01/23 14:21:00;;;;;;;22.95;16.45;;;;;;;-2.81;68.86;100964.43;1684192;84;21460;-67
2022/01/23 14:23:27;;;;;;;20.70;14.78;;;;;;;-2.80;68.89;100967.42;1707454;82;21012;-67
2022/01/23 14:26:00;;;;;;;19.65;13.18;;;;;;;-2.82;68.90;100974.80;1704791;82;21147;-68
2022/01/23 14:28:46;;;;;;;19.10;13.13;;;;;;;-2.82;69.00;100982.11;1703234;83;21845;-67
2022/01/23 14:31:19;;;;;;;18.17;12.75;;;;;;;-2.82;69.08;100983.41;1681677;84;21037;-67
2022/01/23 14:33:47;;;;;;;16.23;11.83;;;;;;;-2.86;69.13;100997.27;1722101;83;20948;-65
2022/01/23 14:36:18;;;;;;;16.77;12.15;;;;;;;-2.89;69.28;100999.91;1705955;84;21021;-66
2022/01/23 14:39:08;;;;;;;17.77;13.00;;;;;;;-2.96;69.43;101001.71;1704733;82;20974;-67
2022/01/23 14:41:38;;;;;;;18.25;12.88;;;;;;;-3.08;69.66;101011.38;1678160;84;22482;-67
2022/01/23 14:44:26;;;;;;;19.75;13.48;;;;;;;-3.24;69.92;101008.98;1707957;84;21412;-66
2022/01/23 14:46:56;;;;;;;21.05;14.30;;;;;;;-3.33;70.15;101022.00;1708030;83;20967;-66
2022/01/23 14:49:27;;;;;;;18.73;13.35;;;;;;;-3.37;70.36;101028.09;1708036;84;20964;-66
2022/01/23 14:51:54;;;;;;;18.10;13.53;;;;;;;-3.34;70.52;101031.92;1716079;82;21396;-66
2022/01/23 14:54:29;;;;;;;20.08;13.53;;;;;;;-3.34;70.58;101034.94;1712947;82;21878;-66
2022/01/23 14:57:01;;;;;;;22.90;15.55;;;;;;;-3.38;70.65;101037.13;1720208;82;20960;-67
2022/01/23 14:59:30;;;;;;;17.60;12.15;;;;;;;-3.41;70.73;101044.92;1708469;84;21429;-67
2022/01/23 15:01:57;;;;;;;21.00;13.85;;;;;;;-3.42;70.88;101054.83;1707508;82;21028;-67
2022/01/23 15:04:23;;;;;;;22.07;15.32;;;;;;;-3.43;70.94;101062.16;1678197;85;21002;-67
2022/01/23 15:06:52;;;;;;;23.05;16.48;;;;;;;-3.45;70.98;101068.64;1707704;82;21832;-66
2022/01/23 15:09:20;;;;;;;19.90;14.25;;;;;;;-3.49;70.99;101070.38;1678266;85;21009;-66
2022/01/23 15:11:48;;;;;;;21.40;14.73;;;;;;;-3.47;71.02;101077.70;1707674;82;20980;-67
2022/01/23 15:14:15;;;;;;;26.30;17.37;;;;;;;-3.46;71.01;101083.72;1672018;84;21069;-68
2022/01/23 15:16:41;;;;;;;21.33;14.90;;;;;;;-3.48;70.99;101092.75;1695104;84;21083;-69
2022/01/23 15:19:08;;;;;;;24.12;15.83;;;;;;;-3.44;71.03;101096.61;1689815;83;21790;-68